Time;durP1;ratioP1;P1;durP2;ratioP2;P2;SDS_P1;SDS_P2;PMS_P1;PMS_P2;Temp;Humidity;BMP_temperature;BMP_pressure;BME280_temperature;BME280_humidity;BME280_pressure;Samples;Min_cycle;Max_cycle;Signal;HPM_P1;HPM_P2
2022/09/23 00:01:06;;;;;;;6.85;3.28;;;;;;;6.02;100.00;99115.16;4500786;31;20450;-77
2022/09/23 00:03:36;;;;;;;4.62;3.33;;;;;;;5.98;100.00;99116.28;4500777;31;20436;-77
2022/09/23 00:06:09;;;;;;;6.18;3.20;;;;;;;5.97;100.00;99118.06;4500350;31;20092;-77
2022/09/23 00:08:37;;;;;;;7.87;3.75;;;;;;;5.95;100.00;99108.66;4484808;31;20145;-77
2022/09/23 00:11:10;;;;;;;6.65;3.47;;;;;;;5.93;100.00;99111.34;4484912;31;20152;-77
2022/09/23 00:13:39;;;;;;;7.43;3.05;;;;;;;5.93;100.00;99113.94;4484915;31;20119;-77
2022/09/23 00:16:09;;;;;;;4.82;3.03;;;;;;;6.01;100.00;99108.28;4484777;31;20211;-77
2022/09/23 00:18:37;;;;;;;7.37;3.80;;;;;;;5.98;100.00;99106.75;4484860;31;20146;-77
2022/09/23 00:21:09;;;;;;;7.15;4.32;;;;;;;5.99;100.00;99103.19;4484841;31;20100;-77
2022/09/23 00:23:39;;;;;;;6.87;4.00;;;;;;;6.05;100.00;99101.97;4484619;32;20089;-77
2022/09/23 00:26:07;;;;;;;5.80;3.35;;;;;;;6.04;100.00;99095.09;4484880;32;20162;-77
2022/09/23 00:28:35;;;;;;;13.70;3.97;;;;;;;5.98;100.00;99093.75;4484845;31;20084;-77
2022/09/23 00:31:04;;;;;;;5.90;3.37;;;;;;;5.93;100.00;99093.16;4484686;31;20107;-77
2022/09/23 00:33:31;;;;;;;7.55;4.00;;;;;;;5.82;100.00;99098.22;4484752;32;20597;-77
2022/09/23 00:35:59;;;;;;;5.25;2.90;;;;;;;5.68;100.00;99099.13;4483778;31;20122;-77
2022/09/23 00:38:27;;;;;;;5.90;3.28;;;;;;;5.66;100.00;99086.22;4484288;31;20100;-76
2022/09/23 00:40:54;;;;;;;6.22;3.40;;;;;;;5.70;100.00;99086.84;4490237;31;20100;-76
2022/09/23 00:43:56;;;;;;;5.03;2.75;;;;;;;5.76;100.00;99086.44;4500217;31;20773;-77
2022/09/23 00:46:36;;;;;;;6.43;2.90;;;;;;;5.90;100.00;99079.53;4500220;31;20147;-77
2022/09/23 00:49:10;;;;;;;5.37;2.80;;;;;;;5.86;100.00;99071.09;4498819;31;20131;-76
2022/09/23 00:51:42;;;;;;;5.62;3.35;;;;;;;5.91;100.00;99069.03;4498850;31;20126;-77
2022/09/23 00:54:09;;;;;;;5.90;3.30;;;;;;;5.91;100.00;99070.81;4499952;31;20168;-77
2022/09/23 00:56:37;;;;;;;5.90;2.97;;;;;;;5.85;100.00;99065.06;4500010;31;20174;-77
2022/09/23 00:59:06;;;;;;;6.00;3.37;;;;;;;5.84;100.00;99070.34;4498621;31;20084;-77
2022/09/23 01:01:36;;;;;;;6.53;3.28;;;;;;;5.88;100.00;99066.62;4500309;31;20488;-77
2022/09/23 01:04:03;;;;;;;7.18;3.30;;;;;;;5.86;100.00;99074.53;4499783;31;20093;-77
2022/09/23 01:06:31;;;;;;;5.37;2.83;;;;;;;5.84;100.00;99078.16;4495301;31;20131;-77
2022/09/23 01:08:58;;;;;;;8.00;3.65;;;;;;;5.84;100.00;99073.81;4483791;31;20510;-77
2022/09/23 01:11:34;;;;;;;6.43;3.42;;;;;;;5.87;100.00;99071.00;4482701;32;20152;-77
2022/09/23 01:14:26;;;;;;;5.72;3.25;;;;;;;5.95;100.00;99077.44;4483732;31;20443;-77
2022/09/23 01:17:06;;;;;;;6.87;3.15;;;;;;;5.95;100.00;99074.84;4483969;31;20111;-77
2022/09/23 01:19:42;;;;;;;6.25;3.00;;;;;;;5.92;100.00;99085.44;4483995;32;20184;-77
2022/09/23 01:22:17;;;;;;;10.65;3.30;;;;;;;5.87;100.00;99080.56;4483768;32;20163;-77
2022/09/23 01:25:07;;;;;;;7.90;3.47;;;;;;;5.89;100.00;99075.25;4482336;32;20096;-77
2022/09/23 01:27:37;;;;;;;6.50;3.45;;;;;;;5.80;100.00;99074.94;4483869;31;20426;-77
2022/09/23 01:30:07;;;;;;;6.93;3.72;;;;;;;5.71;100.00;99070.31;4483779;31;20473;-77
2022/09/23 01:32:56;;;;;;;7.20;3.28;;;;;;;5.68;100.00;99076.53;4483635;31;20421;-77
2022/09/23 01:36:10;;;;;;;5.82;3.45;;;;;;;5.67;100.00;99076.66;4483569;31;20474;-77
2022/09/23 01:38:48;;;;;;;7.80;3.58;;;;;;;5.67;100.00;99076.66;4434164;32;20526;-77
2022/09/23 01:42:09;;;;;;;6.68;3.17;;;;;;;5.56;100.00;99079.94;4429551;32;20172;-77
2022/09/23 01:44:42;;;;;;;6.95;3.50;;;;;;;5.47;100.00;99075.31;4388370;32;20090;-77
2022/09/23 01:47:29;;;;;;;5.22;2.83;;;;;;;5.46;100.00;99076.25;4389101;32;20122;-77
2022/09/23 01:50:54;;;;;;;6.70;3.28;;;;;;;5.50;100.00;99062.97;4391122;32;20106;-77
2022/09/23 01:52:52;;;;;;;5.43;2.90;;;;;;;5.57;100.00;99066.03;4380538;32;20102;-77
2022/09/23 01:55:27;;;;;;;8.05;3.35;;;;;;;5.56;100.00;99068.72;4378271;32;20128;-77
2022/09/23 01:58:05;;;;;;;6.85;3.10;;;;;;;5.59;100.00;99071.94;4390919;32;20110;-77
2022/09/23 02:00:39;;;;;;;7.20;3.55;;;;;;;5.60;100.00;99070.16;4391095;32;20122;-77
2022/09/23 02:03:14;;;;;;;7.97;3.25;;;;;;;5.48;100.00;99072.63;4390662;32;20145;-77
2022/09/23 02:05:45;;;;;;;5.70;3.50;;;;;;;5.45;100.00;99072.81;4378485;32;20466;-77
2022/09/23 02:08:20;;;;;;;5.82;3.45;;;;;;;5.47;100.00;99070.13;4378342;32;20161;-77
2022/09/23 02:10:54;;;;;;;6.03;3.22;;;;;;;5.58;100.00;99077.25;4423912;32;20093;-77
2022/09/23 02:13:27;;;;;;;9.88;3.67;;;;;;;5.56;100.00;99069.53;4424056;32;20140;-77
2022/09/23 02:16:00;;;;;;;5.47;2.87;;;;;;;5.56;100.00;99073.91;4436937;32;20143;-77
2022/09/23 02:18:30;;;;;;;7.55;3.20;;;;;;;5.55;100.00;99070.47;4463276;32;20173;-77
2022/09/23 02:21:03;;;;;;;5.90;3.10;;;;;;;5.60;100.00;99060.62;4484682;32;20092;-77
2022/09/23 02:23:39;;;;;;;5.05;3.05;;;;;;;5.66;100.00;99056.78;4484609;32;20126;-77
2022/09/23 02:26:27;;;;;;;5.53;3.30;;;;;;;5.77;100.00;99067.31;4484714;32;20589;-76
2022/09/23 02:29:19;;;;;;;5.20;3.03;;;;;;;5.73;100.00;99063.25;4485672;31;20101;-77
2022/09/23 02:32:20;;;;;;;7.28;3.05;;;;;;;5.61;100.00;99062.28;4484811;32;20168;-77
2022/09/23 02:34:54;;;;;;;7.07;3.22;;;;;;;5.54;100.00;99066.22;4484518;32;20118;-77
2022/09/23 02:37:27;;;;;;;5.93;2.65;;;;;;;5.50;100.00;99060.38;4485731;32;20090;-77
2022/09/23 02:40:04;;;;;;;5.18;3.22;;;;;;;5.57;100.00;99059.97;4485658;31;20108;-77
2022/09/23 02:43:11;;;;;;;5.95;3.12;;;;;;;5.57;100.00;99060.81;4484559;32;20119;-77
2022/09/23 02:45:38;;;;;;;5.55;3.28;;;;;;;5.50;100.00;99064.72;4423786;32;20113;-77
2022/09/23 02:48:17;;;;;;;6.40;3.60;;;;;;;5.45;100.00;99067.62;4436592;32;20555;-76
2022/09/23 02:50:46;;;;;;;9.10;3.30;;;;;;;5.36;100.00;99068.22;4423830;32;20157;-77
2022/09/23 02:53:16;;;;;;;6.10;3.03;;;;;;;5.33;100.00;99065.81;4424078;32;20432;-77
2022/09/23 02:55:44;;;;;;;7.60;3.92;;;;;;;5.26;100.00;99070.53;4436364;32;20120;-77
2022/09/23 02:58:12;;;;;;;7.03;3.90;;;;;;;5.21;100.00;99070.00;4435899;32;20213;-77
2022/09/23 03:00:57;;;;;;;7.45;3.55;;;;;;;5.26;100.00;99073.13;4436256;32;20125;-77
2022/09/23 03:03:43;;;;;;;8.32;4.18;;;;;;;5.14;100.00;99068.72;4436477;32;20701;-77
2022/09/23 03:06:30;;;;;;;6.85;3.75;;;;;;;5.20;100.00;99065.72;4436977;32;20164;-77
2022/09/23 03:09:03;;;;;;;7.28;3.62;;;;;;;5.17;100.00;99062.50;4438814;32;20131;-77
2022/09/23 03:11:34;;;;;;;7.22;3.50;;;;;;;5.19;100.00;99071.00;4451626;32;20488;-77
2022/09/23 03:14:16;;;;;;;8.15;3.90;;;;;;;5.20;100.00;99064.91;4439289;32;20591;-77
2022/09/23 03:16:49;;;;;;;9.25;3.70;;;;;;;5.26;100.00;99065.34;4439070;32;20119;-77
2022/09/23 03:19:25;;;;;;;9.27;3.95;;;;;;;5.36;100.00;99067.34;4451705;32;20120;-77
2022/09/23 03:22:10;;;;;;;9.13;4.15;;;;;;;5.45;100.00;99069.38;4489541;31;20636;-77
2022/09/23 03:24:39;;;;;;;7.07;3.90;;;;;;;5.53;100.00;99076.69;4499802;31;20457;-77
2022/09/23 03:27:13;;;;;;;7.45;3.42;;;;;;;5.61;100.00;99077.88;4499792;31;20110;-77
2022/09/23 03:29:46;;;;;;;6.12;3.50;;;;;;;5.58;100.00;99072.88;4499671;31;20139;-77
2022/09/23 03:32:16;;;;;;;7.25;4.20;;;;;;;5.56;100.00;99079.13;4499853;31;20089;-76
2022/09/23 03:34:46;;;;;;;5.75;3.58;;;;;;;5.60;100.00;99064.97;4499685;31;20514;-77
2022/09/23 03:37:31;;;;;;;7.25;4.03;;;;;;;5.53;100.00;99064.53;4499665;31;20405;-76
2022/09/23 03:40:07;;;;;;;8.43;3.97;;;;;;;5.45;100.00;99067.62;4500775;31;20080;-77
2022/09/23 03:42:35;;;;;;;7.35;3.75;;;;;;;5.44;100.00;99060.75;4483961;32;20097;-77
2022/09/23 03:45:07;;;;;;;7.70;3.92;;;;;;;5.43;100.00;99060.84;4484013;32;20139;-77
2022/09/23 03:47:34;;;;;;;8.18;3.80;;;;;;;5.43;100.00;99064.28;4484061;32;20561;-77
2022/09/23 03:50:01;;;;;;;8.48;3.95;;;;;;;5.40;100.00;99067.06;4485074;31;20092;-77
2022/09/23 03:52:28;;;;;;;10.13;4.20;;;;;;;5.44;100.00;99071.16;4484819;32;20139;-77
2022/09/23 03:54:55;;;;;;;5.82;3.83;;;;;;;5.37;100.00;99075.06;4485044;32;20097;-77
2022/09/23 03:57:23;;;;;;;5.68;3.28;;;;;;;5.32;100.00;99074.53;4484924;32;20119;-77
2022/09/23 03:59:51;;;;;;;6.57;3.78;;;;;;;5.32;100.00;99074.53;4484993;31;20111;-77
2022/09/23 04:02:19;;;;;;;8.30;3.67;;;;;;;5.31;100.00;99065.91;4484883;32;20442;-77
2022/09/23 04:04:46;;;;;;;5.93;3.70;;;;;;;5.18;100.00;99062.41;4484954;31;20813;-77
2022/09/23 04:07:14;;;;;;;6.43;3.58;;;;;;;5.12;100.00;99066.22;4489217;31;20126;-78
2022/09/23 04:09:41;;;;;;;6.53;3.70;;;;;;;5.15;100.00;99063.41;4493477;31;20392;-78
2022/09/23 04:12:13;;;;;;;8.63;4.00;;;;;;;5.17;100.00;99067.69;4482617;31;20457;-78
2022/09/23 04:14:41;;;;;;;11.45;6.10;;;;;;;5.13;100.00;99065.28;4496793;31;20145;-77
2022/09/23 04:17:08;;;;;;;10.68;7.00;;;;;;;5.19;100.00;99063.22;4493002;31;20111;-77
2022/09/23 04:19:36;;;;;;;11.65;6.22;;;;;;;5.18;100.00;99074.53;4490196;31;20381;-77
2022/09/23 04:22:03;;;;;;;23.12;11.07;;;;;;;5.14;100.00;99068.72;4495197;31;20107;-77
2022/09/23 04:24:30;;;;;;;24.12;12.30;;;;;;;5.17;100.00;99067.69;4491989;31;20220;-78
2022/09/23 04:26:58;;;;;;;12.48;6.00;;;;;;;5.19;100.00;99069.25;4498572;31;20160;-78
2022/09/23 04:29:26;;;;;;;7.68;4.37;;;;;;;5.27;100.00;99072.22;4499320;31;20430;-77
2022/09/23 04:31:53;;;;;;;7.60;3.87;;;;;;;5.30;100.00;99072.03;4497298;31;20213;-78
2022/09/23 04:34:20;;;;;;;11.50;4.30;;;;;;;5.29;100.00;99069.53;4497256;31;20108;-77
2022/09/23 04:36:48;;;;;;;6.90;5.03;;;;;;;5.29;100.00;99072.13;4499978;31;20498;-77
2022/09/23 04:39:16;;;;;;;8.63;5.47;;;;;;;5.28;100.00;99071.28;4498032;31;20130;-77
2022/09/23 04:41:44;;;;;;;8.68;4.80;;;;;;;5.30;100.00;99079.81;4498960;31;20152;-77
2022/09/23 04:44:12;;;;;;;7.18;4.22;;;;;;;5.33;100.00;99084.00;4499108;31;20099;-78
2022/09/23 04:46:40;;;;;;;7.40;3.83;;;;;;;5.40;100.00;99080.06;4497432;31;20489;-77
2022/09/23 04:49:08;;;;;;;5.55;3.40;;;;;;;5.45;100.00;99082.38;4498495;31;20095;-77
2022/09/23 04:51:35;;;;;;;7.68;3.92;;;;;;;5.49;100.00;99089.88;4492120;31;20462;-77
2022/09/23 04:54:02;;;;;;;5.90;3.30;;;;;;;5.42;100.00;99083.41;4496456;31;20607;-78
2022/09/23 04:56:32;;;;;;;7.12;3.92;;;;;;;5.42;100.00;99080.81;4495194;31;20142;-78
2022/09/23 04:59:03;;;;;;;10.90;3.78;;;;;;;5.47;100.00;99078.75;4488829;31;20103;-78
2022/09/23 05:01:33;;;;;;;6.62;3.45;;;;;;;5.61;100.00;99087.44;4493251;31;20152;-78
2022/09/23 05:04:05;;;;;;;7.72;3.78;;;;;;;5.72;100.00;99086.75;4492810;31;20100;-78
2022/09/23 05:06:34;;;;;;;5.37;3.30;;;;;;;5.89;100.00;99096.91;4487979;31;20133;-77
2022/09/23 05:09:03;;;;;;;6.72;3.45;;;;;;;6.01;100.00;99097.88;4494551;31;20114;-78
2022/09/23 05:11:31;;;;;;;4.62;2.85;;;;;;;6.09;100.00;99097.41;4497728;31;20159;-80
2022/09/23 05:13:58;;;;;;;6.10;3.03;;;;;;;6.17;100.00;99106.34;4494345;31;20793;-82
2022/09/23 05:16:26;;;;;;;5.93;3.10;;;;;;;6.28;100.00;99102.22;4486295;31;20233;-83
2022/09/23 05:18:53;;;;;;;5.37;3.17;;;;;;;6.37;100.00;99112.88;4494682;31;20099;-80
2022/09/23 05:21:22;;;;;;;7.32;3.53;;;;;;;6.47;100.00;99102.66;4499819;31;20144;-78
2022/09/23 05:23:55;;;;;;;6.22;4.12;;;;;;;6.63;100.00;99106.81;4487557;31;20107;-80
2022/09/23 05:26:26;;;;;;;5.62;2.70;;;;;;;6.80;100.00;99103.94;4495251;31;20100;-80
2022/09/23 05:28:53;;;;;;;5.32;3.33;;;;;;;6.97;100.00;99109.75;4492921;31;20929;-80
2022/09/23 05:31:22;;;;;;;5.32;2.85;;;;;;;7.10;100.00;99108.78;4499595;31;20109;-81
2022/09/23 05:34:01;;;;;;;7.57;3.00;;;;;;;7.24;100.00;99107.81;4492974;31;20120;-80
2022/09/23 05:36:29;;;;;;;4.80;3.00;;;;;;;7.38;100.00;99108.63;4490391;31;20122;-80
2022/09/23 05:39:05;;;;;;;6.53;3.08;;;;;;;7.46;100.00;99104.56;4493217;31;20789;-80
2022/09/23 05:41:33;;;;;;;6.72;3.35;;;;;;;7.60;100.00;99114.00;4488913;31;20115;-80
2022/09/23 05:44:00;;;;;;;5.00;2.60;;;;;;;7.75;100.00;99113.81;4493997;31;20178;-79
2022/09/23 05:46:29;;;;;;;7.97;3.67;;;;;;;7.95;100.00;99112.41;4497874;31;20122;-80
2022/09/23 05:48:57;;;;;;;11.23;3.42;;;;;;;8.07;100.00;99108.03;4497117;31;20088;-80
2022/09/23 05:51:30;;;;;;;11.80;3.15;;;;;;;8.18;100.00;99102.88;4482954;31;20649;-82
2022/09/23 05:53:58;;;;;;;6.25;3.12;;;;;;;8.39;100.00;99110.03;4490927;31;20145;-80
2022/09/23 05:56:27;;;;;;;7.85;3.37;;;;;;;8.53;100.00;99115.09;4497477;31;20096;-81
2022/09/23 05:58:56;;;;;;;5.45;2.87;;;;;;;8.68;100.00;99110.50;4496986;31;20130;-77
2022/09/23 06:01:26;;;;;;;5.22;2.85;;;;;;;8.90;100.00;99108.84;4499137;31;20592;-78
2022/09/23 06:03:55;;;;;;;6.70;2.90;;;;;;;9.05;100.00;99110.28;4495311;31;20119;-79
2022/09/23 06:06:30;;;;;;;3.72;2.60;;;;;;;9.24;100.00;99109.69;4489704;31;20130;-79
2022/09/23 06:08:59;;;;;;;7.85;2.78;;;;;;;9.34;100.00;99108.00;4495601;31;20110;-78
2022/09/23 06:11:29;;;;;;;5.82;2.67;;;;;;;9.46;100.00;99110.59;4488382;31;20092;-79
2022/09/23 06:14:00;;;;;;;4.53;2.67;;;;;;;9.62;100.00;99116.28;4498127;31;20610;-79
2022/09/23 06:16:33;;;;;;;7.20;2.62;;;;;;;9.66;100.00;99120.31;4491832;31;20445;-80
2022/09/23 06:19:04;;;;;;;4.75;2.33;;;;;;;9.76;100.00;99118.63;4485216;31;20110;-80
2022/09/23 06:21:37;;;;;;;3.65;2.70;;;;;;;9.95;100.00;99122.38;4492138;31;20120;-78
2022/09/23 06:24:06;;;;;;;4.57;2.78;;;;;;;10.01;100.00;99116.66;4499952;31;20552;-79
2022/09/23 06:26:36;;;;;;;7.28;2.80;;;;;;;10.02;100.00;99115.69;4500928;31;20118;-80
2022/09/23 06:29:08;;;;;;;9.13;2.90;;;;;;;10.04;100.00;99111.16;4498466;31;20088;-82
2022/09/23 06:31:36;;;;;;;3.58;2.45;;;;;;;10.16;100.00;99113.72;4493345;31;20091;-83
2022/09/23 06:34:03;;;;;;;11.45;3.22;;;;;;;10.35;100.00;99119.13;4498919;31;20088;-80
2022/09/23 06:36:40;;;;;;;5.40;2.55;;;;;;;10.40;99.75;99121.38;4499322;31;20123;-81
2022/09/23 06:39:10;;;;;;;5.40;2.95;;;;;;;10.38;97.28;99112.81;4485780;31;20083;-82
2022/09/23 06:41:38;;;;;;;9.68;2.62;;;;;;;10.46;97.51;99121.69;4495081;31;20107;-79
2022/09/23 06:44:06;;;;;;;2.87;2.25;;;;;;;10.60;100.00;99120.53;4498546;31;20088;-81
2022/09/23 06:46:33;;;;;;;4.07;2.72;;;;;;;10.56;98.01;99128.78;4495672;31;20546;-79
2022/09/23 06:49:01;;;;;;;6.25;2.92;;;;;;;10.85;98.38;99122.88;4494245;31;20156;-79
2022/09/23 06:51:28;;;;;;;3.87;2.75;;;;;;;10.96;95.15;99128.88;4485627;31;20130;-77
2022/09/23 06:53:55;;;;;;;5.32;3.22;;;;;;;10.89;93.11;99129.53;4496669;31;20126;-79
2022/09/23 06:56:23;;;;;;;7.57;2.85;;;;;;;10.96;93.20;99133.28;4491625;31;20172;-77
2022/09/23 06:58:51;;;;;;;6.78;2.80;;;;;;;11.01;93.63;99128.50;4485118;31;20096;-77
2022/09/23 07:01:18;;;;;;;8.27;2.80;;;;;;;11.12;94.84;99123.16;4489210;31;20112;-79
2022/09/23 07:03:47;;;;;;;6.65;3.08;;;;;;;11.15;93.39;99122.88;4497314;31;20104;-78
2022/09/23 07:06:14;;;;;;;6.22;3.17;;;;;;;11.24;93.29;99137.00;4489913;31;20088;-80
2022/09/23 07:08:43;;;;;;;3.47;3.10;;;;;;;11.21;92.92;99124.16;4497932;31;20155;-81
2022/09/23 07:11:12;;;;;;;6.30;3.25;;;;;;;11.30;89.79;99131.22;4490270;31;20172;-84
2022/09/23 07:13:40;;;;;;;5.10;2.95;;;;;;;11.37;90.28;99123.66;4499443;31;20088;-82
2022/09/23 07:16:08;;;;;;;3.45;2.65;;;;;;;11.43;90.97;99131.00;4486068;31;20575;-88
2022/09/23 07:18:37;;;;;;;8.13;2.85;;;;;;;11.56;90.70;99133.38;4484926;31;20465;-83
2022/09/23 07:21:12;;;;;;;4.75;3.00;;;;;;;11.77;93.26;99133.28;4492305;31;20151;-82
2022/09/23 07:23:44;;;;;;;12.10;3.70;;;;;;;11.72;90.93;99136.31;4486188;31;20152;-79
2022/09/23 07:26:13;;;;;;;4.78;2.95;;;;;;;11.83;90.21;99135.34;4485427;31;20489;-83
2022/09/23 07:28:40;;;;;;;6.60;3.05;;;;;;;11.81;90.97;99145.19;4487204;31;20138;-88
2022/09/23 07:31:14;;;;;;;5.07;3.15;;;;;;;11.98;90.65;99135.81;4490413;31;20274;-86
2022/09/23 07:33:44;;;;;;;9.68;3.53;;;;;;;12.22;87.72;99140.66;4492336;31;20171;-84
2022/09/23 07:36:16;;;;;;;5.32;3.53;;;;;;;12.28;89.15;99146.31;4495290;31;20125;-84
2022/09/23 07:38:44;;;;;;;7.03;3.72;;;;;;;12.15;87.44;99139.56;4490914;31;20102;-78
2022/09/23 07:41:14;;;;;;;6.60;4.10;;;;;;;12.19;88.78;99143.56;4490275;31;20928;-81
2022/09/23 07:43:42;;;;;;;4.53;3.22;;;;;;;12.15;87.44;99147.44;4496796;31;20083;-81
2022/09/23 07:46:16;;;;;;;9.02;3.28;;;;;;;12.00;89.13;99139.13;4498756;31;20123;-85
2022/09/23 07:48:44;;;;;;;9.43;3.77;;;;;;;11.97;87.67;99143.84;4484149;31;20143;-84
2022/09/23 07:51:24;;;;;;;9.55;4.07;;;;;;;11.99;88.61;99139.28;4491546;31;20108;-80
2022/09/23 07:53:52;;;;;;;6.53;3.70;;;;;;;12.27;87.99;99144.69;4500063;31;20092;-85
2022/09/23 07:56:22;;;;;;;7.65;3.65;;;;;;;12.33;87.49;99141.50;4497333;31;20228;-83
2022/09/23 07:58:58;;;;;;;13.00;4.32;;;;;;;12.42;85.88;99140.66;4483665;32;20107;-82
2022/09/23 08:01:28;;;;;;;7.75;3.47;;;;;;;12.52;84.03;99138.00;4484716;31;20085;-85
2022/09/23 08:04:00;;;;;;;5.53;3.47;;;;;;;12.59;85.35;99145.19;4484419;31;20104;-91
2022/09/23 08:06:27;;;;;;;18.65;4.72;;;;;;;12.95;84.09;99141.94;4496660;31;20412;-87
2022/09/23 08:08:59;;;;;;;7.32;3.83;;;;;;;12.83;81.87;99140.47;4497519;31;20580;-85
2022/09/23 08:11:27;;;;;;;4.60;3.22;;;;;;;12.92;82.57;99140.41;4491909;31;20119;-82
2022/09/23 08:13:54;;;;;;;5.35;3.50;;;;;;;12.95;81.56;99140.13;4499930;31;20121;-92
2022/09/23 08:16:22;;;;;;;6.25;3.67;;;;;;;13.14;85.62;99139.25;4498687;31;20092;-84
2022/09/23 08:18:49;;;;;;;6.00;3.50;;;;;;;13.18;81.06;99142.41;4498168;31;20518;-87
2022/09/23 08:21:20;;;;;;;4.53;3.17;;;;;;;13.31;82.86;99147.34;4499285;31;20092;-89
2022/09/23 08:23:47;;;;;;;7.20;3.78;;;;;;;13.36;81.76;99146.94;4499889;31;20865;-87
2022/09/23 08:26:15;;;;;;;4.95;3.65;;;;;;;13.52;81.10;99152.41;4498654;31;20142;-88
2022/09/23 08:28:49;;;;;;;5.90;3.70;;;;;;;13.56;78.28;99134.50;4498800;31;20135;-92
2022/09/23 08:31:16;;;;;;;5.97;3.42;;;;;;;13.65;82.20;99137.06;4500097;31;20108;-91
2022/09/23 08:33:43;;;;;;;5.65;3.25;;;;;;;13.89;81.00;99146.22;4498240;31;20092;-89
2022/09/23 08:36:10;;;;;;;6.15;2.90;;;;;;;13.90;77.48;99140.00;4499753;31;20158;-91
2022/09/23 08:38:37;;;;;;;8.75;3.80;;;;;;;14.01;81.16;99137.13;4496760;31;20096;-91
2022/09/23 08:41:12;;;;;;;8.00;3.55;;;;;;;14.26;85.62;99133.88;4496785;31;20259;-90
2022/09/23 08:43:45;;;;;;;5.70;3.08;;;;;;;14.29;78.12;99138.84;4487710;31;20161;-90
2022/09/23 08:46:21;;;;;;;5.15;3.20;;;;;;;14.04;82.74;99143.09;4493101;31;20088;-90
2022/09/23 08:48:48;;;;;;;6.30;3.45;;;;;;;13.90;76.54;99142.63;4483966;31;20453;-86
2022/09/23 08:51:24;;;;;;;5.15;3.70;;;;;;;13.96;78.73;99149.91;4490188;31;20092;-85
2022/09/23 08:53:51;;;;;;;6.78;4.37;;;;;;;14.17;78.17;99146.16;4485335;31;22002;-84
2022/09/23 08:56:22;;;;;;;8.65;4.53;;;;;;;14.22;78.55;99145.69;4492902;31;20152;-85
2022/09/23 08:58:55;;;;;;;9.25;4.85;;;;;;;14.44;77.67;99144.41;4496164;31;20111;-82
2022/09/23 09:01:43;;;;;;;6.70;4.40;;;;;;;14.50;77.34;99135.88;4488851;31;20135;-83
2022/09/23 09:04:34;;;;;;;5.35;3.53;;;;;;;14.83;76.97;99144.06;4488288;31;20108;-84
2022/09/23 09:07:14;;;;;;;4.93;3.47;;;;;;;14.96;76.48;99146.28;4493822;31;20096;-85
2022/09/23 09:10:15;;;;;;;9.95;4.18;;;;;;;14.98;76.47;99139.87;4492837;31;20755;-85
2022/09/23 09:12:48;;;;;;;6.45;4.12;;;;;;;15.36;73.94;99137.72;4492892;31;20108;-82
2022/09/23 09:15:20;;;;;;;5.80;4.00;;;;;;;15.36;75.66;99136.91;4487652;31;20103;-85
2022/09/23 09:18:10;;;;;;;7.05;3.87;;;;;;;15.67;76.13;99137.19;4485973;31;20126;-84
2022/09/23 09:20:55;;;;;;;9.15;3.70;;;;;;;15.51;69.81;99137.97;4491410;31;20119;-84
2022/09/23 09:23:39;;;;;;;10.35;4.00;;;;;;;15.83;71.39;99130.31;4491323;31;20116;-83
2022/09/23 09:26:11;;;;;;;10.88;3.95;;;;;;;16.13;72.24;99128.88;4494662;31;20154;-85
2022/09/23 09:28:42;;;;;;;9.02;4.50;;;;;;;16.10;68.81;99137.97;4485182;31;20187;-85
2022/09/23 09:31:28;;;;;;;5.85;4.25;;;;;;;16.06;67.29;99131.34;4487037;31;20603;-85
2022/09/23 09:33:59;;;;;;;7.32;4.93;;;;;;;16.14;66.49;99128.72;4486140;31;20123;-85
2022/09/23 09:36:46;;;;;;;11.52;4.60;;;;;;;16.33;69.45;99118.81;4489696;31;20159;-83
2022/09/23 09:39:14;;;;;;;7.20;4.30;;;;;;;16.23;64.33;99120.78;4496829;31;20738;-82
2022/09/23 09:41:51;;;;;;;9.13;4.40;;;;;;;16.12;64.59;99125.44;4491903;31;20152;-82
2022/09/23 09:44:34;;;;;;;8.68;5.18;;;;;;;16.55;67.04;99124.41;4494823;31;20149;-80
2022/09/23 09:47:37;;;;;;;12.88;5.57;;;;;;;15.87;67.62;99115.81;4497365;31;20104;-80
2022/09/23 09:50:10;;;;;;;7.07;4.93;;;;;;;15.42;69.73;99118.63;4495129;31;20096;-82
2022/09/23 09:52:37;;;;;;;7.30;4.70;;;;;;;15.17;70.34;99114.22;4493360;31;20160;-81
2022/09/23 09:55:13;;;;;;;9.20;5.22;;;;;;;15.30;70.81;99117.25;4498178;31;20232;-82
2022/09/23 09:57:53;;;;;;;7.78;5.12;;;;;;;15.64;69.55;99110.25;4493723;31;20498;-81
2022/09/23 10:00:20;;;;;;;8.93;4.65;;;;;;;15.58;68.09;99103.84;4498147;31;20870;-82
2022/09/23 10:03:21;;;;;;;10.32;4.80;;;;;;;15.74;67.89;99114.41;4492216;31;20461;-87
2022/09/23 10:05:51;;;;;;;8.57;5.60;;;;;;;15.84;69.76;99108.22;4485306;31;20100;-82
2022/09/23 10:08:25;;;;;;;7.72;4.68;;;;;;;15.60;70.25;99107.94;4496697;31;20143;-79
2022/09/23 10:11:04;;;;;;;9.52;5.50;;;;;;;15.50;68.02;99106.44;4495356;31;20179;-79
2022/09/23 10:13:31;;;;;;;8.13;5.57;;;;;;;15.45;67.73;99106.91;4495646;31;20084;-84
2022/09/23 10:16:01;;;;;;;8.00;4.85;;;;;;;15.45;67.05;99106.91;4498717;31;20434;-80
2022/09/23 10:18:31;;;;;;;13.80;5.00;;;;;;;15.33;67.07;99116.13;4499899;31;20153;-79
2022/09/23 10:21:06;;;;;;;7.57;4.53;;;;;;;15.27;67.07;99107.00;4485426;31;20155;-78
2022/09/23 10:23:38;;;;;;;6.22;4.43;;;;;;;15.29;67.79;99105.06;4491199;31;20139;-79
2022/09/23 10:26:07;;;;;;;15.02;5.50;;;;;;;15.38;68.74;99106.75;4496471;31;20131;-78
2022/09/23 10:28:37;;;;;;;8.73;4.45;;;;;;;15.42;67.56;99107.25;4497220;31;20108;-80
2022/09/23 10:31:04;;;;;;;6.55;4.30;;;;;;;15.66;66.13;99109.13;4498921;31;20872;-78
2022/09/23 10:33:31;;;;;;;8.35;4.20;;;;;;;15.70;67.50;99107.81;4498286;31;20111;-80
2022/09/23 10:35:58;;;;;;;8.63;4.32;;;;;;;15.52;68.22;99113.22;4498442;31;20495;-82
2022/09/23 10:38:26;;;;;;;6.25;4.15;;;;;;;15.31;68.43;99108.34;4494157;31;20131;-82
2022/09/23 10:46:40;;;;;;;7.75;4.30;;;;;;;15.92;69.03;99095.81;4483485;31;20096;-82
2022/09/23 10:49:29;;;;;;;6.93;4.03;;;;;;;15.77;67.33;99100.06;4493690;31;20131;-80
2022/09/23 10:52:00;;;;;;;6.37;4.15;;;;;;;15.72;68.18;99097.91;4491534;31;20100;-83
2022/09/23 10:54:58;;;;;;;8.63;4.40;;;;;;;15.75;66.13;99102.88;4494564;31;20083;-90
2022/09/23 10:57:44;;;;;;;7.07;4.62;;;;;;;15.67;67.76;99112.59;4490589;31;20107;-89
2022/09/23 11:00:22;;;;;;;6.60;4.32;;;;;;;15.94;67.07;99108.87;4490299;31;20115;-90
2022/09/23 11:03:01;;;;;;;8.15;4.22;;;;;;;16.25;65.08;99101.13;4490396;31;20160;-89
2022/09/23 11:05:34;;;;;;;7.15;4.70;;;;;;;16.20;66.30;99100.81;4488777;31;20174;-89
2022/09/23 11:08:37;;;;;;;7.25;4.62;;;;;;;16.21;65.74;99096.34;4484841;31;20163;-89
2022/09/23 11:11:13;;;;;;;7.72;4.87;;;;;;;16.13;66.37;99095.34;4449009;32;20093;-89
2022/09/23 11:13:54;;;;;;;9.00;4.78;;;;;;;16.16;65.79;99096.03;4447459;32;20117;-91
2022/09/23 11:16:31;;;;;;;7.55;4.60;;;;;;;16.24;65.04;99090.72;4434568;32;20092;-89
2022/09/23 11:19:05;;;;;;;8.05;5.18;;;;;;;16.36;64.86;99089.38;4437788;32;20132;-91
2022/09/23 11:21:49;;;;;;;7.65;4.25;;;;;;;16.42;67.81;99083.44;4447106;32;20155;-89
2022/09/23 11:24:50;;;;;;;7.28;4.37;;;;;;;16.06;66.06;99086.41;4429273;32;20136;-91
2022/09/23 11:27:59;;;;;;;12.52;4.45;;;;;;;16.23;65.95;99076.69;4434612;32;20178;-89
2022/09/23 11:30:37;;;;;;;6.97;4.43;;;;;;;16.68;70.78;99077.09;4447474;32;20267;-88
2022/09/23 11:33:25;;;;;;;7.90;4.62;;;;;;;17.00;65.86;99070.09;4446888;32;20488;-88
2022/09/23 11:36:35;;;;;;;6.68;4.55;;;;;;;17.16;62.00;99077.97;4448764;32;20105;-88
2022/09/23 11:39:12;;;;;;;5.70;3.87;;;;;;;17.22;61.33;99065.06;4374256;32;20110;-91
2022/09/23 11:41:40;;;;;;;6.28;3.60;;;;;;;16.87;62.57;99067.19;4374569;32;20288;-92
2022/09/23 11:44:18;;;;;;;6.97;5.10;;;;;;;16.73;63.08;99066.00;4361427;32;20555;-92
2022/09/23 11:46:50;;;;;;;6.07;3.90;;;;;;;16.59;61.56;99059.59;4375495;32;20121;-90
2022/09/23 11:49:26;;;;;;;5.87;4.03;;;;;;;17.02;60.50;99063.66;4410164;32;20465;-89
2022/09/23 11:52:07;;;;;;;7.55;4.20;;;;;;;17.05;59.23;99054.53;4421417;32;20943;-90
2022/09/23 11:54:54;;;;;;;8.07;4.15;;;;;;;17.41;61.99;99054.03;4407701;32;20128;-88
2022/09/23 11:57:47;;;;;;;5.37;3.15;;;;;;;17.50;61.72;99055.66;4402899;32;20097;-91
2022/09/23 12:00:19;;;;;;;5.20;3.10;;;;;;;17.68;54.09;99054.53;4405751;32;20555;-89
2022/09/23 12:03:17;;;;;;;4.65;3.50;;;;;;;17.84;55.76;99059.72;4392329;32;20157;-91
2022/09/23 12:05:47;;;;;;;4.47;3.25;;;;;;;18.06;54.86;99057.25;4409068;32;20117;-91
2022/09/23 12:08:31;;;;;;;4.22;3.10;;;;;;;18.08;53.92;99050.78;4404328;32;20242;-87